createdAt,value
2023-12-26T00:00:43.033Z,-3.23
2023-12-26T00:04:18.164Z,-3.22
2023-12-26T00:07:42.644Z,-3.19
2023-12-26T00:11:05.799Z,-3.17
2023-12-26T00:14:28.657Z,-3.17
2023-12-26T00:17:52.408Z,-3.16
2023-12-26T00:21:17.258Z,-3.13
2023-12-26T00:24:40.606Z,-3.12
2023-12-26T00:28:03.772Z,-3.12
2023-12-26T00:31:27.453Z,-3.14
2023-12-26T00:34:50.497Z,-3.10
2023-12-26T00:38:15.514Z,-3.11
2023-12-26T00:41:38.720Z,-3.10
2023-12-26T00:45:01.953Z,-3.10
2023-12-26T00:48:25.000Z,-3.09
2023-12-26T00:51:48.187Z,-3.08
2023-12-26T00:55:12.569Z,-3.05
2023-12-26T00:58:35.833Z,-3.05
2023-12-26T01:02:02.990Z,-3.03
2023-12-26T01:05:26.519Z,-3.00
2023-12-26T01:08:49.485Z,-2.99
2023-12-26T01:12:15.033Z,-3.03
2023-12-26T01:15:38.208Z,-2.97
2023-12-26T01:19:01.199Z,-2.93
2023-12-26T01:22:24.630Z,-2.98
2023-12-26T01:25:47.887Z,-2.92
2023-12-26T01:29:12.412Z,-2.91
2023-12-26T01:32:36.140Z,-2.91
2023-12-26T01:36:00.571Z,-2.92
2023-12-26T01:39:23.832Z,-2.93
2023-12-26T01:42:49.142Z,-2.95
2023-12-26T01:46:15.394Z,-2.93
2023-12-26T01:49:38.718Z,-2.98
2023-12-26T01:53:01.525Z,-2.98
2023-12-26T01:56:25.801Z,-2.93
2023-12-26T01:59:49.180Z,-2.92
2023-12-26T02:03:15.269Z,-2.89
2023-12-26T02:06:43.877Z,-2.90
2023-12-26T02:10:07.836Z,-2.92
2023-12-26T02:13:30.938Z,-3.01
2023-12-26T02:16:58.105Z,-2.96
2023-12-26T02:20:24.529Z,-2.97
2023-12-26T02:23:49.091Z,-3.00
2023-12-26T02:27:17.764Z,-3.05
2023-12-26T02:30:43.059Z,-3.09
2023-12-26T02:34:06.870Z,-3.10
2023-12-26T02:37:32.016Z,-3.15
2023-12-26T02:40:55.709Z,-3.20
2023-12-26T02:44:20.087Z,-3.26
2023-12-26T02:47:43.262Z,-3.34
2023-12-26T02:51:08.291Z,-3.41
2023-12-26T02:54:31.234Z,-3.46
2023-12-26T02:57:54.793Z,-3.55
2023-12-26T03:01:18.984Z,-3.65
2023-12-26T03:04:41.847Z,-3.74
2023-12-26T03:08:04.905Z,-3.80
2023-12-26T03:11:28.785Z,-3.88
2023-12-26T03:14:51.758Z,-3.99
2023-12-26T03:18:16.446Z,-4.12
2023-12-26T03:21:39.396Z,-4.21
2023-12-26T03:25:02.560Z,-4.29
2023-12-26T03:28:25.320Z,-4.40
2023-12-26T03:31:48.582Z,-4.46
2023-12-26T03:35:13.089Z,-4.57
2023-12-26T03:38:35.729Z,-4.59
2023-12-26T03:41:58.800Z,-4.65
2023-12-26T03:45:21.583Z,-4.72
2023-12-26T03:48:44.824Z,-4.80
2023-12-26T03:52:09.616Z,-4.91
2023-12-26T03:55:32.880Z,-4.94
2023-12-26T03:58:55.739Z,-4.99
2023-12-26T04:02:20.930Z,-5.03
2023-12-26T04:05:44.426Z,-5.05
2023-12-26T04:09:10.282Z,-5.10
2023-12-26T04:12:33.711Z,-5.23
2023-12-26T04:15:56.880Z,-5.22
2023-12-26T04:19:20.085Z,-5.23
2023-12-26T04:22:43.101Z,-5.30
2023-12-26T04:26:08.418Z,-5.25
2023-12-26T04:29:31.811Z,-5.27
2023-12-26T04:32:54.952Z,-5.31
2023-12-26T04:36:18.567Z,-5.34
2023-12-26T04:39:42.102Z,-5.28
2023-12-26T04:43:10.146Z,-5.26
2023-12-26T04:46:33.032Z,-5.30
2023-12-26T04:49:55.946Z,-5.26
2023-12-26T04:53:18.842Z,-5.24
2023-12-26T04:56:44.971Z,-5.19
2023-12-26T05:00:12.818Z,-5.16
2023-12-26T05:03:35.886Z,-5.13
2023-12-26T05:06:59.165Z,-5.09
2023-12-26T05:10:22.447Z,-5.08
2023-12-26T05:13:45.716Z,-5.07
2023-12-26T05:17:11.245Z,-5.11
2023-12-26T05:20:35.118Z,-5.08
2023-12-26T05:23:58.385Z,-5.10
2023-12-26T05:27:21.847Z,-5.07
2023-12-26T05:30:45.167Z,-5.08
2023-12-26T05:34:10.691Z,-5.10
2023-12-26T05:37:33.408Z,-5.09
2023-12-26T05:40:56.146Z,-5.06
2023-12-26T05:44:18.896Z,-5.03
2023-12-26T05:47:41.904Z,-5.03
2023-12-26T05:51:08.743Z,-4.97
2023-12-26T05:54:31.458Z,-4.93
2023-12-26T05:57:54.129Z,-4.91
2023-12-26T06:01:16.751Z,-4.89
2023-12-26T06:04:39.621Z,-4.87
2023-12-26T06:08:03.504Z,-4.87
2023-12-26T06:11:26.961Z,-4.89
2023-12-26T06:14:49.537Z,-4.82
2023-12-26T06:18:13.003Z,-4.84
2023-12-26T06:21:35.650Z,-4.80
2023-12-26T06:24:59.824Z,-4.78
2023-12-26T06:28:22.590Z,-4.84
2023-12-26T06:31:45.666Z,-4.81
2023-12-26T06:35:09.865Z,-4.74
2023-12-26T06:38:32.982Z,-4.74
2023-12-26T06:41:57.532Z,-4.69
2023-12-26T06:45:20.586Z,-4.70
2023-12-26T06:48:43.846Z,-4.65
2023-12-26T06:52:08.517Z,-4.62
2023-12-26T06:55:32.224Z,-4.57
2023-12-26T06:58:56.480Z,-4.51
2023-12-26T07:02:19.541Z,-4.47
2023-12-26T07:05:42.636Z,-4.48
2023-12-26T07:09:05.436Z,-4.44
2023-12-26T07:12:28.525Z,-4.37
2023-12-26T07:15:53.555Z,-4.35
2023-12-26T07:19:16.978Z,-4.34
2023-12-26T07:22:40.161Z,-4.38
2023-12-26T07:26:03.535Z,-4.28
2023-12-26T07:29:28.847Z,-4.26
2023-12-26T07:32:52.931Z,-4.20
2023-12-26T07:36:17.313Z,-4.16
2023-12-26T07:39:40.587Z,-4.13
2023-12-26T07:43:03.547Z,-4.07
2023-12-26T07:46:26.720Z,-4.06
2023-12-26T07:49:51.098Z,-4.01
2023-12-26T07:53:14.788Z,-3.95
2023-12-26T07:56:37.639Z,-3.94
2023-12-26T08:00:00.346Z,-3.88
2023-12-26T08:03:23.116Z,-3.86
2023-12-26T08:06:48.949Z,-3.77
2023-12-26T08:10:12.968Z,-3.70
2023-12-26T08:13:35.921Z,-3.64
2023-12-26T08:16:58.569Z,-3.60
2023-12-26T08:20:21.542Z,-3.56
2023-12-26T08:23:46.057Z,-3.44
2023-12-26T08:27:09.001Z,-3.37
2023-12-26T08:30:32.585Z,-3.30
2023-12-26T08:33:57.375Z,-3.27
2023-12-26T08:37:21.132Z,-3.12
2023-12-26T08:40:45.937Z,-3.06
2023-12-26T08:44:10.734Z,-3.00
2023-12-26T08:47:34.292Z,-2.94
2023-12-26T08:50:58.202Z,-2.89
2023-12-26T08:54:22.271Z,-2.82
2023-12-26T08:57:48.815Z,-2.73
2023-12-26T09:01:12.820Z,-2.63
2023-12-26T09:04:36.190Z,-2.63
2023-12-26T09:08:03.014Z,-2.50
2023-12-26T09:11:26.179Z,-2.54
2023-12-26T09:14:51.081Z,-2.40
2023-12-26T09:18:15.266Z,-2.37
2023-12-26T09:21:38.121Z,-2.29
2023-12-26T09:25:02.010Z,-2.23
2023-12-26T09:28:26.188Z,-2.19
2023-12-26T09:31:52.234Z,-2.18
2023-12-26T09:35:15.592Z,-2.12
2023-12-26T09:38:40.189Z,-2.10
2023-12-26T09:42:08.137Z,-1.95
2023-12-26T09:45:31.928Z,-1.89
2023-12-26T09:48:57.109Z,-1.79
2023-12-26T09:52:20.828Z,-1.72
2023-12-26T09:55:44.403Z,-1.72
2023-12-26T09:59:08.593Z,-1.64
2023-12-26T10:02:31.884Z,-1.61
2023-12-26T10:05:59.209Z,-1.63
2023-12-26T10:09:22.231Z,-1.62
2023-12-26T10:12:45.538Z,-1.61
2023-12-26T10:16:09.423Z,-1.61
2023-12-26T10:19:33.200Z,-1.60
2023-12-26T10:22:59.534Z,-1.62
2023-12-26T10:26:22.914Z,-1.59
2023-12-26T10:29:54.068Z,-1.48
2023-12-26T10:33:27.802Z,-1.45
2023-12-26T10:36:53.091Z,-1.43
2023-12-26T10:40:19.223Z,-1.38
2023-12-26T10:43:43.202Z,-1.31
2023-12-26T10:47:08.211Z,-1.29
2023-12-26T10:50:34.863Z,-1.27
2023-12-26T10:54:05.627Z,-1.30
2023-12-26T10:57:32.105Z,-1.32
2023-12-26T11:00:56.852Z,-1.30
2023-12-26T11:04:18.617Z,-1.25
2023-12-26T11:07:42.345Z,-1.18
2023-12-26T11:11:04.599Z,-1.13
2023-12-26T11:14:29.200Z,-1.10
2023-12-26T11:17:51.026Z,-1.04
2023-12-26T11:21:15.652Z,-1.01
2023-12-26T11:24:37.261Z,-0.98
2023-12-26T11:28:01.587Z,-0.99
2023-12-26T11:31:25.141Z,-1.01
2023-12-26T11:34:48.199Z,-1.06
2023-12-26T11:38:09.803Z,-1.00
2023-12-26T11:41:33.070Z,-1.02
2023-12-26T11:44:55.209Z,-1.05
2023-12-26T11:48:19.842Z,-1.04
2023-12-26T11:51:42.262Z,-1.08
2023-12-26T11:55:05.543Z,-1.09
2023-12-26T11:58:27.246Z,-1.05
2023-12-26T12:01:50.206Z,-1.05
2023-12-26T12:05:17.358Z,-1.03
2023-12-26T12:09:06.634Z,-0.98
2023-12-26T12:12:28.675Z,-0.95
2023-12-26T12:15:51.626Z,-0.94
2023-12-26T12:19:16.725Z,-0.94
2023-12-26T12:22:41.134Z,-0.94
2023-12-26T12:26:07.056Z,-0.94
2023-12-26T12:29:29.712Z,-0.90
2023-12-26T12:32:51.778Z,-0.90
2023-12-26T12:36:14.970Z,-0.90
2023-12-26T12:39:38.190Z,-0.89
2023-12-26T12:43:00.844Z,-0.91
2023-12-26T12:46:22.977Z,-0.89
2023-12-26T12:49:46.260Z,-0.89
2023-12-26T12:53:08.172Z,-0.93
2023-12-26T12:56:32.274Z,-0.94
2023-12-26T12:59:53.834Z,-0.95
2023-12-26T13:03:25.560Z,-0.92
2023-12-26T13:06:50.564Z,-0.93
2023-12-26T13:10:13.328Z,-0.94
2023-12-26T13:13:40.072Z,-0.94
2023-12-26T13:17:03.428Z,-0.95
2023-12-26T13:20:25.471Z,-0.95
2023-12-26T13:23:48.340Z,-0.95
2023-12-26T13:27:22.165Z,-0.95
2023-12-26T13:30:50.092Z,-0.94
2023-12-26T13:34:12.101Z,-0.97
2023-12-26T13:37:34.913Z,-1.02
2023-12-26T13:40:56.950Z,-1.04
2023-12-26T13:44:19.524Z,-1.08
2023-12-26T13:47:43.181Z,-1.07
2023-12-26T13:51:06.855Z,-1.09
2023-12-26T13:54:29.870Z,-1.08
2023-12-26T13:57:53.271Z,-1.07
2023-12-26T14:01:20.236Z,-1.06
2023-12-26T14:04:44.873Z,-1.09
2023-12-26T14:08:07.675Z,-1.13
2023-12-26T14:11:30.240Z,-1.17
2023-12-26T14:14:53.310Z,-1.24
2023-12-26T14:18:16.663Z,-1.22
2023-12-26T14:21:40.887Z,-1.22
2023-12-26T14:25:04.206Z,-1.22
2023-12-26T14:28:27.288Z,-1.29
2023-12-26T14:31:49.839Z,-1.29
2023-12-26T14:35:12.876Z,-1.34
2023-12-26T14:38:37.326Z,-1.40
2023-12-26T14:42:00.878Z,-1.43
2023-12-26T14:45:24.022Z,-1.44
2023-12-26T14:48:46.915Z,-1.47
2023-12-26T14:52:09.944Z,-1.49
2023-12-26T14:55:34.015Z,-1.46
2023-12-26T14:58:56.460Z,-1.44
2023-12-26T15:02:19.221Z,-1.45
2023-12-26T15:05:41.886Z,-1.48
2023-12-26T15:09:05.149Z,-1.53
2023-12-26T15:12:29.655Z,-1.47
2023-12-26T15:15:52.996Z,-1.48
2023-12-26T15:19:16.242Z,-1.47
2023-12-26T15:22:38.922Z,-1.45
2023-12-26T15:26:01.768Z,-1.45
2023-12-26T15:29:26.284Z,-1.44
2023-12-26T15:32:51.486Z,-1.43
2023-12-26T15:36:19.620Z,-1.43
2023-12-26T15:39:43.417Z,-1.46
2023-12-26T15:43:07.117Z,-1.46
2023-12-26T15:46:32.223Z,-1.42
2023-12-26T15:49:55.120Z,-1.37
2023-12-26T15:53:18.244Z,-1.36
2023-12-26T15:56:41.102Z,-1.37
2023-12-26T16:00:03.880Z,-1.34
2023-12-26T16:03:29.561Z,-1.30
2023-12-26T16:06:54.181Z,-1.24
2023-12-26T16:10:20.611Z,-1.22
2023-12-26T16:13:45.176Z,-1.23
2023-12-26T16:17:08.182Z,-1.22
2023-12-26T16:20:32.565Z,-1.21
2023-12-26T16:23:55.050Z,-1.21
2023-12-26T16:27:21.750Z,-1.17
2023-12-26T16:30:44.332Z,-1.15
2023-12-26T16:34:07.494Z,-1.14
2023-12-26T16:37:32.060Z,-1.15
2023-12-26T16:40:56.722Z,-1.12
2023-12-26T16:44:19.639Z,-1.12
2023-12-26T16:47:42.321Z,-1.16
2023-12-26T16:51:08.034Z,-1.13
2023-12-26T16:54:35.157Z,-1.12
2023-12-26T16:57:59.647Z,-1.08
2023-12-26T17:01:22.320Z,-1.07
2023-12-26T17:04:45.261Z,-1.07
2023-12-26T17:08:07.914Z,-1.03
2023-12-26T17:11:32.209Z,-1.03
2023-12-26T17:14:55.478Z,-1.08
2023-12-26T17:18:18.751Z,-1.03
2023-12-26T17:21:42.614Z,-1.02
2023-12-26T17:25:05.599Z,-0.99
2023-12-26T17:28:29.971Z,-1.00
2023-12-26T17:31:56.306Z,-0.99
2023-12-26T17:35:19.462Z,-0.98
2023-12-26T17:38:44.097Z,-0.96
2023-12-26T17:42:09.005Z,-0.99
2023-12-26T17:45:33.615Z,-0.97
2023-12-26T17:48:56.426Z,-0.98
2023-12-26T17:52:19.674Z,-0.96
2023-12-26T17:55:42.342Z,-0.96
2023-12-26T17:59:06.128Z,-0.94
2023-12-26T18:02:31.060Z,-0.93
2023-12-26T18:05:54.110Z,-0.93
2023-12-26T18:09:17.526Z,-0.92
2023-12-26T18:12:40.318Z,-0.93
2023-12-26T18:16:04.094Z,-0.95
2023-12-26T18:19:28.944Z,-0.96
2023-12-26T18:22:52.354Z,-0.97
2023-12-26T18:26:19.120Z,-1.02
2023-12-26T18:29:41.859Z,-0.99
2023-12-26T18:33:05.330Z,-0.98
2023-12-26T18:36:29.716Z,-0.97
2023-12-26T18:39:52.284Z,-0.96
2023-12-26T18:43:16.383Z,-0.95
2023-12-26T18:46:41.892Z,-0.95
2023-12-26T18:50:07.302Z,-0.94
2023-12-26T18:53:31.618Z,-0.95
2023-12-26T18:56:54.389Z,-0.97
2023-12-26T19:00:18.122Z,-0.97
2023-12-26T19:03:43.437Z,-0.97
2023-12-26T19:07:06.714Z,-1.01
2023-12-26T19:10:31.813Z,-1.09
2023-12-26T19:13:54.663Z,-1.06
2023-12-26T19:17:20.908Z,-1.07
2023-12-26T19:20:45.429Z,-1.08
2023-12-26T19:24:09.764Z,-1.12
2023-12-26T19:27:34.315Z,-1.07
2023-12-26T19:30:57.884Z,-1.06
2023-12-26T19:34:20.960Z,-1.06
2023-12-26T19:37:43.969Z,-1.06
2023-12-26T19:41:06.957Z,-1.05
2023-12-26T19:44:32.349Z,-1.07
2023-12-26T19:47:56.216Z,-1.10
2023-12-26T19:51:19.507Z,-1.07
2023-12-26T19:54:43.392Z,-1.05
2023-12-26T19:58:06.027Z,-1.05
2023-12-26T20:01:30.213Z,-1.06
2023-12-26T20:04:53.418Z,-1.06
2023-12-26T20:08:16.148Z,-1.03
2023-12-26T20:11:44.326Z,-0.99
2023-12-26T20:15:08.057Z,-0.99
2023-12-26T20:18:32.323Z,-0.98
2023-12-26T20:21:55.245Z,-1.02
2023-12-26T20:25:19.906Z,-1.05
2023-12-26T20:28:42.791Z,-1.12
2023-12-26T20:32:05.768Z,-1.13
2023-12-26T20:35:30.186Z,-1.13
2023-12-26T20:38:53.565Z,-1.17
2023-12-26T20:42:18.202Z,-1.18
2023-12-26T20:45:41.444Z,-1.20
2023-12-26T20:49:05.215Z,-1.26
2023-12-26T20:52:29.764Z,-1.27
2023-12-26T20:55:53.140Z,-1.27
2023-12-26T20:59:16.205Z,-1.30
2023-12-26T21:02:39.760Z,-1.36
2023-12-26T21:06:02.971Z,-1.36
2023-12-26T21:09:27.542Z,-1.38
2023-12-26T21:12:50.703Z,-1.41
2023-12-26T21:16:18.162Z,-1.43
2023-12-26T21:19:42.476Z,-1.45
2023-12-26T21:23:05.704Z,-1.43
2023-12-26T21:26:30.815Z,-1.43
2023-12-26T21:29:53.960Z,-1.44
2023-12-26T21:33:17.054Z,-1.42
2023-12-26T21:36:40.064Z,-1.41
2023-12-26T21:40:04.406Z,-1.40
2023-12-26T21:43:28.692Z,-1.41
2023-12-26T21:46:51.170Z,-1.41
2023-12-26T21:50:14.430Z,-1.43
2023-12-26T21:53:37.588Z,-1.45
2023-12-26T21:57:00.766Z,-1.47
2023-12-26T22:00:25.746Z,-1.46
2023-12-26T22:03:49.017Z,-1.45
2023-12-26T22:07:11.518Z,-1.46
2023-12-26T22:10:34.609Z,-1.47
2023-12-26T22:13:57.262Z,-1.49
2023-12-26T22:17:21.337Z,-1.51
2023-12-26T22:20:45.330Z,-1.51
2023-12-26T22:24:08.639Z,-1.52
2023-12-26T22:27:31.571Z,-1.54
2023-12-26T22:30:54.768Z,-1.59
2023-12-26T22:34:19.060Z,-1.59
2023-12-26T22:37:41.753Z,-1.61
2023-12-26T22:41:05.120Z,-1.65
2023-12-26T22:44:27.983Z,-1.65
2023-12-26T22:47:50.935Z,-1.64
2023-12-26T22:51:18.883Z,-1.67
2023-12-26T22:54:42.061Z,-1.71
2023-12-26T22:58:05.352Z,-1.70
2023-12-26T23:01:28.654Z,-1.73
2023-12-26T23:04:51.713Z,-1.73
2023-12-26T23:08:15.966Z,-1.77
2023-12-26T23:11:40.462Z,-1.78
2023-12-26T23:15:03.057Z,-1.82
2023-12-26T23:18:26.344Z,-1.82
2023-12-26T23:21:50.236Z,-1.83
2023-12-26T23:25:15.201Z,-1.83
2023-12-26T23:28:37.916Z,-1.85
2023-12-26T23:32:00.567Z,-1.97
2023-12-26T23:35:23.455Z,-1.86
2023-12-26T23:38:47.098Z,-1.86
2023-12-26T23:42:11.543Z,-1.85
2023-12-26T23:45:34.718Z,-1.82
2023-12-26T23:48:57.836Z,-1.81
2023-12-26T23:52:20.677Z,-1.82
2023-12-26T23:55:44.049Z,-1.82
2023-12-26T23:59:08.433Z,-1.86
